Martin Challenger — WDB2346 — position and weather

sailwx.info

Track history (hours):
 
Tides and Currents Weather Stations Pressure Air Temp Water Temp Dewpoint Dewpoint Depression Visibility Wind Speed Wind Dir Waves Ship Positions

Martin Challenger

Owner: MARTIN OPERATING PARTNERSHIP LP, VIDOR, TX. More information available from US FCC via Universal Licensing System and Coast Guard Vessel Documentation Center.

Last reported at 2014-Oct-28 23:29 UTC. Time now 2014-Oct-31 08:21 UTC.
Position N 29°47' W 095°05'.

Length 20 m; draft 2.9 m.

MMSI: 366874920.

Date/timePositionNaut miles runAvg speedWind from/ knotsBaromVisibWave heightAir tempDewpointWater temp
2014-Oct-28 23:29N 29°47' W 095°05'2 1.2
2014-Oct-28 21:33N 29°45' W 095°06'0 0.0
2014-Oct-28 15:16N 29°45' W 095°06'0 0.1
2014-Oct-28 14:31N 29°45' W 095°06'0 0.0
2014-Oct-28 13:33N 29°45' W 095°06'0 0.0
2014-Oct-28 12:33N 29°45' W 095°06'7 0.6
2014-Oct-28 00:20N 29°41' W 094°59'5 6.6
2014-Oct-27 23:33N 29°37' W 094°57'  
2014-Oct-25 17:33N 29°23' W 094°52'3 1.2
2014-Oct-25 15:14N 29°21' W 094°49'0 0.0
2014-Oct-25 14:27N 29°21' W 094°49'0 0.0
2014-Oct-25 13:16N 29°21' W 094°49'0 0.0
2014-Oct-25 12:11N 29°21' W 094°49'0 0.0
2014-Oct-25 11:33N 29°21' W 094°49'0 0.0
2014-Oct-25 10:33N 29°21' W 094°49'0 0.0
2014-Oct-25 09:33N 29°21' W 094°49'0 0.0
2014-Oct-25 08:24N 29°21' W 094°49'0 0.0
2014-Oct-25 07:21N 29°21' W 094°49'0 0.0
2014-Oct-25 06:27N 29°21' W 094°49'0 0.0
2014-Oct-24 20:24N 29°21' W 094°49'0 0.0
2014-Oct-24 18:28N 29°21' W 094°49'0 0.0
2014-Oct-24 17:33N 29°21' W 094°49'0 0.0
2014-Oct-24 16:30N 29°21' W 094°49'0 0.0
2014-Oct-24 15:32N 29°21' W 094°49'0 0.0
2014-Oct-24 14:31N 29°21' W 094°49'0 0.0
2014-Oct-24 13:13N 29°21' W 094°49'0 0.0
2014-Oct-24 11:20N 29°21' W 094°49'0 0.0
2014-Oct-24 09:33N 29°21' W 094°49'0 0.0
2014-Oct-24 07:31N 29°21' W 094°49'0 0.0
2014-Oct-24 06:33N 29°21' W 094°49'4 0.2
2014-Oct-23 10:08N 29°23' W 094°53'  
Track history (hours):
 
Tides and Currents Weather Stations Pressure Air Temp Water Temp Dewpoint Dewpoint Depression Visibility Wind Speed Wind Dir Waves Ship Positions

Martin Challenger

Owner: MARTIN OPERATING PARTNERSHIP LP, VIDOR, TX. More information available from US FCC via Universal Licensing System and Coast Guard Vessel Documentation Center.

Last reported at 2014-Oct-28 23:29 UTC. Time now 2014-Oct-31 08:21 UTC.
Position N 29°47' W 095°05'.

Length 20 m; draft 2.9 m.

MMSI: 366874920.

Date/timePositionNaut miles runAvg speedWind from/ knotsBaromVisibWave heightAir tempDewpointWater temp
2014-Oct-28 23:29N 29°47' W 095°05'2 1.2
2014-Oct-28 21:33N 29°45' W 095°06'0 0.0
2014-Oct-28 15:16N 29°45' W 095°06'0 0.1
2014-Oct-28 14:31N 29°45' W 095°06'0 0.0
2014-Oct-28 13:33N 29°45' W 095°06'0 0.0
2014-Oct-28 12:33N 29°45' W 095°06'7 0.6
2014-Oct-28 00:20N 29°41' W 094°59'5 6.6
2014-Oct-27 23:33N 29°37' W 094°57'  
2014-Oct-25 17:33N 29°23' W 094°52'3 1.2
2014-Oct-25 15:14N 29°21' W 094°49'0 0.0
2014-Oct-25 14:27N 29°21' W 094°49'0 0.0
2014-Oct-25 13:16N 29°21' W 094°49'0 0.0
2014-Oct-25 12:11N 29°21' W 094°49'0 0.0
2014-Oct-25 11:33N 29°21' W 094°49'0 0.0
2014-Oct-25 10:33N 29°21' W 094°49'0 0.0
2014-Oct-25 09:33N 29°21' W 094°49'0 0.0
2014-Oct-25 08:24N 29°21' W 094°49'0 0.0
2014-Oct-25 07:21N 29°21' W 094°49'0 0.0
2014-Oct-25 06:27N 29°21' W 094°49'0 0.0
2014-Oct-24 20:24N 29°21' W 094°49'0 0.0
2014-Oct-24 18:28N 29°21' W 094°49'0 0.0
2014-Oct-24 17:33N 29°21' W 094°49'0 0.0
2014-Oct-24 16:30N 29°21' W 094°49'0 0.0
2014-Oct-24 15:32N 29°21' W 094°49'0 0.0
2014-Oct-24 14:31N 29°21' W 094°49'0 0.0
2014-Oct-24 13:13N 29°21' W 094°49'0 0.0
2014-Oct-24 11:20N 29°21' W 094°49'0 0.0
2014-Oct-24 09:33N 29°21' W 094°49'0 0.0
2014-Oct-24 07:31N 29°21' W 094°49'0 0.0
2014-Oct-24 06:33N 29°21' W 094°49'4 0.2
2014-Oct-23 10:08N 29°23' W 094°53'  

Dump ship's entire track history